sensor_id;sensor_type;location;lat;lon;timestamp;P1;durP1;ratioP1;P2;durP2;ratioP2
19038;SDS011;9652;49.014;12.052;2023-04-03T00:00:22;3.47;;;3.27;;
19038;SDS011;9652;49.014;12.052;2023-04-03T00:02:49;4.30;;;4.00;;
19038;SDS011;9652;49.014;12.052;2023-04-03T00:05:17;4.60;;;4.30;;
19038;SDS011;9652;49.014;12.052;2023-04-03T00:07:44;4.20;;;3.80;;
19038;SDS011;9652;49.014;12.052;2023-04-03T00:10:11;3.87;;;3.30;;
19038;SDS011;9652;49.014;12.052;2023-04-03T00:12:38;4.43;;;4.13;;
19038;SDS011;9652;49.014;12.052;2023-04-03T00:15:06;3.80;;;3.57;;
19038;SDS011;9652;49.014;12.052;2023-04-03T00:17:35;4.10;;;3.83;;
19038;SDS011;9652;49.014;12.052;2023-04-03T00:20:03;4.20;;;3.90;;
19038;SDS011;9652;49.014;12.052;2023-04-03T00:22:31;4.60;;;4.20;;
19038;SDS011;9652;49.014;12.052;2023-04-03T00:24:58;3.63;;;3.43;;
19038;SDS011;9652;49.014;12.052;2023-04-03T00:27:25;3.87;;;3.57;;
19038;SDS011;9652;49.014;12.052;2023-04-03T00:29:53;4.00;;;3.70;;
19038;SDS011;9652;49.014;12.052;2023-04-03T00:32:21;4.00;;;3.80;;
19038;SDS011;9652;49.014;12.052;2023-04-03T00:34:49;4.00;;;3.70;;
19038;SDS011;9652;49.014;12.052;2023-04-03T00:37:16;5.23;;;3.80;;
19038;SDS011;9652;49.014;12.052;2023-04-03T00:39:43;4.00;;;3.70;;
19038;SDS011;9652;49.014;12.052;2023-04-03T00:42:11;4.13;;;3.73;;
19038;SDS011;9652;49.014;12.052;2023-04-03T00:47:58;4.27;;;3.97;;
19038;SDS011;9652;49.014;12.052;2023-04-03T00:50:32;3.97;;;3.67;;
19038;SDS011;9652;49.014;12.052;2023-04-03T00:53:04;4.60;;;4.30;;
19038;SDS011;9652;49.014;12.052;2023-04-03T00:55:36;4.23;;;3.93;;
19038;SDS011;9652;49.014;12.052;2023-04-03T00:58:05;4.23;;;3.93;;
19038;SDS011;9652;49.014;12.052;2023-04-03T01:00:35;4.57;;;4.20;;
19038;SDS011;9652;49.014;12.052;2023-04-03T01:03:08;4.13;;;3.50;;
19038;SDS011;9652;49.014;12.052;2023-04-03T01:05:38;4.47;;;4.07;;
19038;SDS011;9652;49.014;12.052;2023-04-03T01:08:07;3.90;;;3.60;;
19038;SDS011;9652;49.014;12.052;2023-04-03T01:10:34;3.67;;;3.33;;
19038;SDS011;9652;49.014;12.052;2023-04-03T01:13:02;5.27;;;4.40;;
19038;SDS011;9652;49.014;12.052;2023-04-03T01:15:47;5.07;;;4.20;;
19038;SDS011;9652;49.014;12.052;2023-04-03T01:18:14;3.73;;;3.53;;
19038;SDS011;9652;49.014;12.052;2023-04-03T01:20:50;4.03;;;3.83;;
19038;SDS011;9652;49.014;12.052;2023-04-03T01:24:03;3.83;;;3.53;;
19038;SDS011;9652;49.014;12.052;2023-04-03T01:26:48;4.60;;;4.20;;
19038;SDS011;9652;49.014;12.052;2023-04-03T01:29:16;4.10;;;3.70;;
19038;SDS011;9652;49.014;12.052;2023-04-03T01:31:46;4.20;;;3.90;;
19038;SDS011;9652;49.014;12.052;2023-04-03T01:34:19;4.53;;;4.23;;
19038;SDS011;9652;49.014;12.052;2023-04-03T01:36:48;4.20;;;3.90;;
19038;SDS011;9652;49.014;12.052;2023-04-03T01:39:16;4.00;;;3.60;;
19038;SDS011;9652;49.014;12.052;2023-04-03T01:41:43;4.00;;;3.70;;
19038;SDS011;9652;49.014;12.052;2023-04-03T01:44:31;4.50;;;4.07;;
19038;SDS011;9652;49.014;12.052;2023-04-03T01:47:00;4.20;;;3.90;;
19038;SDS011;9652;49.014;12.052;2023-04-03T01:49:29;4.00;;;3.70;;
19038;SDS011;9652;49.014;12.052;2023-04-03T01:51:56;3.70;;;3.43;;
19038;SDS011;9652;49.014;12.052;2023-04-03T01:54:23;3.73;;;3.53;;
19038;SDS011;9652;49.014;12.052;2023-04-03T01:56:50;4.80;;;4.40;;
19038;SDS011;9652;49.014;12.052;2023-04-03T01:59:19;4.53;;;4.13;;
19038;SDS011;9652;49.014;12.052;2023-04-03T02:01:46;4.43;;;4.13;;
19038;SDS011;9652;49.014;12.052;2023-04-03T02:04:15;3.90;;;3.63;;
19038;SDS011;9652;49.014;12.052;2023-04-03T02:06:42;3.83;;;3.53;;
19038;SDS011;9652;49.014;12.052;2023-04-03T02:09:09;3.57;;;3.37;;
19038;SDS011;9652;49.014;12.052;2023-04-03T02:11:36;5.30;;;4.10;;
19038;SDS011;9652;49.014;12.052;2023-04-03T02:14:03;3.67;;;3.47;;
19038;SDS011;9652;49.014;12.052;2023-04-03T02:16:30;4.10;;;3.70;;
19038;SDS011;9652;49.014;12.052;2023-04-03T02:18:58;4.30;;;4.00;;
19038;SDS011;9652;49.014;12.052;2023-04-03T02:21:26;4.03;;;3.73;;
19038;SDS011;9652;49.014;12.052;2023-04-03T02:23:53;4.70;;;4.40;;
19038;SDS011;9652;49.014;12.052;2023-04-03T02:26:20;3.60;;;3.40;;
19038;SDS011;9652;49.014;12.052;2023-04-03T02:28:48;4.40;;;4.10;;
19038;SDS011;9652;49.014;12.052;2023-04-03T02:31:15;4.47;;;4.17;;
19038;SDS011;9652;49.014;12.052;2023-04-03T02:33:45;4.60;;;4.20;;
19038;SDS011;9652;49.014;12.052;2023-04-03T02:36:14;3.93;;;3.73;;
19038;SDS011;9652;49.014;12.052;2023-04-03T02:38:47;3.63;;;3.40;;
19038;SDS011;9652;49.014;12.052;2023-04-03T02:41:14;4.27;;;3.97;;
19038;SDS011;9652;49.014;12.052;2023-04-03T02:43:41;4.17;;;3.87;;
19038;SDS011;9652;49.014;12.052;2023-04-03T02:46:08;4.40;;;4.00;;
19038;SDS011;9652;49.014;12.052;2023-04-03T02:48:36;4.10;;;3.73;;
19038;SDS011;9652;49.014;12.052;2023-04-03T02:51:03;4.30;;;4.00;;
19038;SDS011;9652;49.014;12.052;2023-04-03T02:53:31;4.77;;;4.37;;
19038;SDS011;9652;49.014;12.052;2023-04-03T02:56:05;4.83;;;4.43;;
19038;SDS011;9652;49.014;12.052;2023-04-03T02:58:32;4.23;;;3.93;;
19038;SDS011;9652;49.014;12.052;2023-04-03T03:01:02;4.90;;;4.50;;
19038;SDS011;9652;49.014;12.052;2023-04-03T03:03:30;4.47;;;4.07;;
19038;SDS011;9652;49.014;12.052;2023-04-03T03:06:00;4.83;;;4.43;;
19038;SDS011;9652;49.014;12.052;2023-04-03T03:08:29;3.90;;;3.60;;
19038;SDS011;9652;49.014;12.052;2023-04-03T03:10:56;4.60;;;4.20;;
19038;SDS011;9652;49.014;12.052;2023-04-03T03:13:25;3.93;;;3.73;;
19038;SDS011;9652;49.014;12.052;2023-04-03T03:15:52;3.70;;;3.50;;
19038;SDS011;9652;49.014;12.052;2023-04-03T03:18:20;4.33;;;4.03;;
19038;SDS011;9652;49.014;12.052;2023-04-03T03:20:50;5.10;;;4.20;;
19038;SDS011;9652;49.014;12.052;2023-04-03T03:23:19;5.67;;;5.20;;
19038;SDS011;9652;49.014;12.052;2023-04-03T03:25:48;4.20;;;3.90;;
19038;SDS011;9652;49.014;12.052;2023-04-03T03:28:15;4.17;;;3.87;;
19038;SDS011;9652;49.014;12.052;2023-04-03T03:30:44;4.77;;;4.30;;
19038;SDS011;9652;49.014;12.052;2023-04-03T03:33:11;3.97;;;3.67;;
19038;SDS011;9652;49.014;12.052;2023-04-03T03:35:38;4.10;;;3.70;;
19038;SDS011;9652;49.014;12.052;2023-04-03T03:38:07;4.37;;;4.07;;
19038;SDS011;9652;49.014;12.052;2023-04-03T03:40:34;3.57;;;3.37;;
19038;SDS011;9652;49.014;12.052;2023-04-03T03:43:01;3.97;;;3.67;;
19038;SDS011;9652;49.014;12.052;2023-04-03T03:45:29;4.77;;;4.37;;
19038;SDS011;9652;49.014;12.052;2023-04-03T03:47:58;4.17;;;3.87;;
19038;SDS011;9652;49.014;12.052;2023-04-03T03:50:25;4.20;;;3.90;;
19038;SDS011;9652;49.014;12.052;2023-04-03T03:52:52;4.37;;;4.07;;
19038;SDS011;9652;49.014;12.052;2023-04-03T03:55:19;4.73;;;4.33;;
19038;SDS011;9652;49.014;12.052;2023-04-03T03:57:51;5.20;;;4.73;;
19038;SDS011;9652;49.014;12.052;2023-04-03T04:00:19;4.10;;;3.80;;
19038;SDS011;9652;49.014;12.052;2023-04-03T04:02:52;4.00;;;3.70;;
19038;SDS011;9652;49.014;12.052;2023-04-03T04:05:23;4.00;;;3.70;;
19038;SDS011;9652;49.014;12.052;2023-04-03T04:07:52;4.20;;;3.90;;
19038;SDS011;9652;49.014;12.052;2023-04-03T04:10:19;4.60;;;4.20;;
19038;SDS011;9652;49.014;12.052;2023-04-03T04:12:46;4.40;;;3.97;;
19038;SDS011;9652;49.014;12.052;2023-04-03T04:15:15;4.60;;;4.30;;
19038;SDS011;9652;49.014;12.052;2023-04-03T04:17:42;4.97;;;4.57;;
19038;SDS011;9652;49.014;12.052;2023-04-03T04:20:10;4.27;;;3.97;;
19038;SDS011;9652;49.014;12.052;2023-04-03T04:22:40;4.83;;;4.43;;
19038;SDS011;9652;49.014;12.052;2023-04-03T04:25:08;4.20;;;3.90;;
19038;SDS011;9652;49.014;12.052;2023-04-03T04:27:37;4.83;;;4.43;;
19038;SDS011;9652;49.014;12.052;2023-04-03T04:30:05;5.00;;;4.60;;
19038;SDS011;9652;49.014;12.052;2023-04-03T04:32:34;4.87;;;4.47;;
19038;SDS011;9652;49.014;12.052;2023-04-03T04:35:01;4.20;;;3.80;;
19038;SDS011;9652;49.014;12.052;2023-04-03T04:37:31;4.40;;;4.10;;
19038;SDS011;9652;49.014;12.052;2023-04-03T04:39:59;4.63;;;4.17;;
19038;SDS011;9652;49.014;12.052;2023-04-03T04:42:28;4.03;;;3.73;;
19038;SDS011;9652;49.014;12.052;2023-04-03T04:44:55;4.10;;;3.77;;
19038;SDS011;9652;49.014;12.052;2023-04-03T04:47:22;4.43;;;4.07;;
19038;SDS011;9652;49.014;12.052;2023-04-03T04:49:50;4.50;;;4.20;;
19038;SDS011;9652;49.014;12.052;2023-04-03T04:52:17;4.50;;;4.13;;
19038;SDS011;9652;49.014;12.052;2023-04-03T04:54:44;4.17;;;3.87;;
19038;SDS011;9652;49.014;12.052;2023-04-03T04:57:13;4.83;;;4.43;;
19038;SDS011;9652;49.014;12.052;2023-04-03T04:59:41;4.33;;;4.03;;
19038;SDS011;9652;49.014;12.052;2023-04-03T05:02:08;4.00;;;3.70;;
19038;SDS011;9652;49.014;12.052;2023-04-03T05:04:37;4.47;;;4.17;;
19038;SDS011;9652;49.014;12.052;2023-04-03T05:07:10;4.83;;;4.53;;
19038;SDS011;9652;49.014;12.052;2023-04-03T05:09:37;5.20;;;3.87;;
19038;SDS011;9652;49.014;12.052;2023-04-03T05:12:08;4.53;;;4.20;;
19038;SDS011;9652;49.014;12.052;2023-04-03T05:14:42;4.50;;;4.10;;
19038;SDS011;9652;49.014;12.052;2023-04-03T05:17:10;7.93;;;3.93;;
19038;SDS011;9652;49.014;12.052;2023-04-03T05:19:41;4.57;;;4.23;;
19038;SDS011;9652;49.014;12.052;2023-04-03T05:22:09;4.50;;;4.10;;
19038;SDS011;9652;49.014;12.052;2023-04-03T05:24:36;4.13;;;3.83;;
19038;SDS011;9652;49.014;12.052;2023-04-03T05:27:03;5.10;;;3.90;;
19038;SDS011;9652;49.014;12.052;2023-04-03T05:29:34;4.73;;;4.33;;
19038;SDS011;9652;49.014;12.052;2023-04-03T05:32:05;4.23;;;3.90;;
19038;SDS011;9652;49.014;12.052;2023-04-03T05:34:32;4.43;;;4.03;;
19038;SDS011;9652;49.014;12.052;2023-04-03T05:36:59;4.20;;;3.90;;
19038;SDS011;9652;49.014;12.052;2023-04-03T05:39:28;4.30;;;3.90;;
19038;SDS011;9652;49.014;12.052;2023-04-03T05:41:56;3.87;;;3.57;;
19038;SDS011;9652;49.014;12.052;2023-04-03T05:44:23;4.43;;;3.93;;
19038;SDS011;9652;49.014;12.052;2023-04-03T05:46:53;4.90;;;4.50;;
19038;SDS011;9652;49.014;12.052;2023-04-03T05:49:21;4.20;;;3.90;;
19038;SDS011;9652;49.014;12.052;2023-04-03T05:51:48;3.87;;;3.57;;
19038;SDS011;9652;49.014;12.052;2023-04-03T05:54:23;5.07;;;4.03;;
19038;SDS011;9652;49.014;12.052;2023-04-03T05:56:58;4.50;;;4.20;;
19038;SDS011;9652;49.014;12.052;2023-04-03T05:59:26;4.17;;;3.87;;
19038;SDS011;9652;49.014;12.052;2023-04-03T06:01:56;4.67;;;4.20;;
19038;SDS011;9652;49.014;12.052;2023-04-03T06:04:25;4.93;;;4.47;;
19038;SDS011;9652;49.014;12.052;2023-04-03T06:06:53;4.27;;;3.87;;
19038;SDS011;9652;49.014;12.052;2023-04-03T06:09:25;4.60;;;4.20;;
19038;SDS011;9652;49.014;12.052;2023-04-03T06:11:55;5.50;;;5.10;;
19038;SDS011;9652;49.014;12.052;2023-04-03T06:14:24;5.03;;;4.57;;
19038;SDS011;9652;49.014;12.052;2023-04-03T06:16:51;4.80;;;4.40;;
19038;SDS011;9652;49.014;12.052;2023-04-03T06:19:19;5.43;;;4.27;;
19038;SDS011;9652;49.014;12.052;2023-04-03T06:21:51;5.10;;;4.60;;
19038;SDS011;9652;49.014;12.052;2023-04-03T06:24:19;4.97;;;4.57;;
19038;SDS011;9652;49.014;12.052;2023-04-03T06:26:47;4.60;;;4.03;;
19038;SDS011;9652;49.014;12.052;2023-04-03T06:29:14;5.03;;;4.53;;
19038;SDS011;9652;49.014;12.052;2023-04-03T06:31:42;5.07;;;4.67;;
19038;SDS011;9652;49.014;12.052;2023-04-03T06:34:09;4.87;;;4.37;;
19038;SDS011;9652;49.014;12.052;2023-04-03T06:36:36;5.23;;;4.80;;
19038;SDS011;9652;49.014;12.052;2023-04-03T06:39:06;5.07;;;4.67;;
19038;SDS011;9652;49.014;12.052;2023-04-03T06:41:33;4.37;;;3.97;;
19038;SDS011;9652;49.014;12.052;2023-04-03T06:44:00;5.00;;;4.60;;
19038;SDS011;9652;49.014;12.052;2023-04-03T06:46:28;4.87;;;4.47;;
19038;SDS011;9652;49.014;12.052;2023-04-03T06:48:55;6.47;;;5.57;;
19038;SDS011;9652;49.014;12.052;2023-04-03T06:51:24;4.90;;;4.50;;
19038;SDS011;9652;49.014;12.052;2023-04-03T06:53:55;5.03;;;4.47;;
19038;SDS011;9652;49.014;12.052;2023-04-03T06:56:26;5.63;;;5.07;;
19038;SDS011;9652;49.014;12.052;2023-04-03T06:58:54;4.70;;;4.20;;
19038;SDS011;9652;49.014;12.052;2023-04-03T07:01:23;5.87;;;4.80;;
19038;SDS011;9652;49.014;12.052;2023-04-03T07:03:52;5.40;;;4.90;;
19038;SDS011;9652;49.014;12.052;2023-04-03T07:06:21;3.83;;;3.50;;
19038;SDS011;9652;49.014;12.052;2023-04-03T07:08:51;5.00;;;4.03;;
19038;SDS011;9652;49.014;12.052;2023-04-03T07:11:19;4.13;;;3.73;;
19038;SDS011;9652;49.014;12.052;2023-04-03T07:13:48;5.03;;;4.07;;
19038;SDS011;9652;49.014;12.052;2023-04-03T07:16:16;4.23;;;3.83;;
19038;SDS011;9652;49.014;12.052;2023-04-03T07:18:43;5.17;;;4.30;;
19038;SDS011;9652;49.014;12.052;2023-04-03T07:21:10;6.63;;;4.17;;
19038;SDS011;9652;49.014;12.052;2023-04-03T07:23:38;4.47;;;3.77;;
19038;SDS011;9652;49.014;12.052;2023-04-03T07:26:05;8.07;;;4.33;;
19038;SDS011;9652;49.014;12.052;2023-04-03T07:28:33;4.43;;;4.13;;
19038;SDS011;9652;49.014;12.052;2023-04-03T07:31:03;4.10;;;3.70;;
19038;SDS011;9652;49.014;12.052;2023-04-03T07:33:33;5.73;;;3.60;;
19038;SDS011;9652;49.014;12.052;2023-04-03T07:36:02;6.10;;;4.43;;
19038;SDS011;9652;49.014;12.052;2023-04-03T07:38:32;11.60;;;4.03;;
19038;SDS011;9652;49.014;12.052;2023-04-03T07:41:00;41.77;;;6.93;;
19038;SDS011;9652;49.014;12.052;2023-04-03T07:43:27;115.20;;;13.33;;
19038;SDS011;9652;49.014;12.052;2023-04-03T07:45:54;89.87;;;13.73;;
19038;SDS011;9652;49.014;12.052;2023-04-03T07:48:24;36.80;;;8.77;;
19038;SDS011;9652;49.014;12.052;2023-04-03T07:50:52;48.70;;;8.13;;
19038;SDS011;9652;49.014;12.052;2023-04-03T07:53:20;50.13;;;8.30;;
19038;SDS011;9652;49.014;12.052;2023-04-03T07:55:47;38.03;;;7.70;;
19038;SDS011;9652;49.014;12.052;2023-04-03T07:58:17;88.57;;;14.10;;
19038;SDS011;9652;49.014;12.052;2023-04-03T08:00:45;29.93;;;7.63;;
19038;SDS011;9652;49.014;12.052;2023-04-03T08:03:13;4.80;;;3.93;;
19038;SDS011;9652;49.014;12.052;2023-04-03T08:05:44;11.97;;;4.17;;
19038;SDS011;9652;49.014;12.052;2023-04-03T08:08:14;21.23;;;5.13;;
19038;SDS011;9652;49.014;12.052;2023-04-03T08:10:45;7.77;;;4.07;;
19038;SDS011;9652;49.014;12.052;2023-04-03T08:13:16;5.93;;;3.47;;
19038;SDS011;9652;49.014;12.052;2023-04-03T08:15:44;7.53;;;3.70;;
19038;SDS011;9652;49.014;12.052;2023-04-03T08:18:11;23.00;;;6.03;;
19038;SDS011;9652;49.014;12.052;2023-04-03T08:20:38;116.60;;;15.23;;
19038;SDS011;9652;49.014;12.052;2023-04-03T08:23:08;9.83;;;4.27;;
19038;SDS011;9652;49.014;12.052;2023-04-03T08:25:37;4.73;;;3.33;;
19038;SDS011;9652;49.014;12.052;2023-04-03T08:28:05;5.67;;;3.07;;
19038;SDS011;9652;49.014;12.052;2023-04-03T08:30:33;3.70;;;2.63;;
19038;SDS011;9652;49.014;12.052;2023-04-03T08:33:01;8.53;;;3.73;;
19038;SDS011;9652;49.014;12.052;2023-04-03T08:35:28;13.50;;;3.23;;
19038;SDS011;9652;49.014;12.052;2023-04-03T08:37:55;4.90;;;3.10;;
19038;SDS011;9652;49.014;12.052;2023-04-03T08:40:24;5.70;;;3.67;;
19038;SDS011;9652;49.014;12.052;2023-04-03T08:42:54;5.90;;;2.77;;
19038;SDS011;9652;49.014;12.052;2023-04-03T08:45:42;5.37;;;3.17;;
19038;SDS011;9652;49.014;12.052;2023-04-03T08:48:15;3.50;;;2.40;;
19038;SDS011;9652;49.014;12.052;2023-04-03T08:50:49;3.67;;;3.07;;
19038;SDS011;9652;49.014;12.052;2023-04-03T08:53:20;3.20;;;3.00;;
19038;SDS011;9652;49.014;12.052;2023-04-03T08:55:54;4.13;;;2.77;;
19038;SDS011;9652;49.014;12.052;2023-04-03T08:58:23;2.83;;;2.63;;
19038;SDS011;9652;49.014;12.052;2023-04-03T09:00:55;3.27;;;2.97;;
19038;SDS011;9652;49.014;12.052;2023-04-03T09:03:29;3.13;;;2.93;;
19038;SDS011;9652;49.014;12.052;2023-04-03T09:06:00;4.73;;;2.67;;
19038;SDS011;9652;49.014;12.052;2023-04-03T09:08:33;3.63;;;3.00;;
19038;SDS011;9652;49.014;12.052;2023-04-03T09:11:13;6.37;;;3.10;;
19038;SDS011;9652;49.014;12.052;2023-04-03T09:13:52;2.80;;;2.60;;
19038;SDS011;9652;49.014;12.052;2023-04-03T09:16:31;3.10;;;2.90;;
19038;SDS011;9652;49.014;12.052;2023-04-03T09:19:11;3.30;;;2.40;;
19038;SDS011;9652;49.014;12.052;2023-04-03T09:21:48;2.90;;;2.70;;
19038;SDS011;9652;49.014;12.052;2023-04-03T09:24:15;2.63;;;2.43;;
19038;SDS011;9652;49.014;12.052;2023-04-03T09:26:46;3.77;;;3.10;;
19038;SDS011;9652;49.014;12.052;2023-04-03T09:29:24;2.87;;;2.67;;
19038;SDS011;9652;49.014;12.052;2023-04-03T09:31:52;2.60;;;2.40;;
19038;SDS011;9652;49.014;12.052;2023-04-03T09:34:25;2.53;;;2.43;;
19038;SDS011;9652;49.014;12.052;2023-04-03T09:36:57;2.90;;;2.70;;
19038;SDS011;9652;49.014;12.052;2023-04-03T09:39:31;2.70;;;2.50;;
19038;SDS011;9652;49.014;12.052;2023-04-03T09:42:20;3.67;;;2.70;;
19038;SDS011;9652;49.014;12.052;2023-04-03T09:44:52;2.60;;;2.40;;
19038;SDS011;9652;49.014;12.052;2023-04-03T09:47:24;2.40;;;2.30;;
19038;SDS011;9652;49.014;12.052;2023-04-03T09:50:08;2.50;;;2.40;;
19038;SDS011;9652;49.014;12.052;2023-04-03T09:52:46;2.60;;;2.40;;
19038;SDS011;9652;49.014;12.052;2023-04-03T09:55:17;2.77;;;2.53;;
19038;SDS011;9652;49.014;12.052;2023-04-03T09:57:53;3.73;;;2.37;;
19038;SDS011;9652;49.014;12.052;2023-04-03T10:00:23;1.97;;;1.87;;
19038;SDS011;9652;49.014;12.052;2023-04-03T10:02:54;3.00;;;2.63;;
19038;SDS011;9652;49.014;12.052;2023-04-03T10:05:27;2.90;;;2.47;;
19038;SDS011;9652;49.014;12.052;2023-04-03T10:08:07;2.13;;;1.87;;
19038;SDS011;9652;49.014;12.052;2023-04-03T10:10:46;3.10;;;2.10;;
19038;SDS011;9652;49.014;12.052;2023-04-03T10:13:32;1.90;;;1.80;;
19038;SDS011;9652;49.014;12.052;2023-04-03T10:16:01;3.47;;;1.80;;
19038;SDS011;9652;49.014;12.052;2023-04-03T10:18:38;1.70;;;1.60;;
19038;SDS011;9652;49.014;12.052;2023-04-03T10:21:13;1.73;;;1.60;;
19038;SDS011;9652;49.014;12.052;2023-04-03T10:23:51;2.47;;;1.53;;
19038;SDS011;9652;49.014;12.052;2023-04-03T10:26:35;1.73;;;1.60;;
19038;SDS011;9652;49.014;12.052;2023-04-03T10:29:15;3.00;;;1.80;;
19038;SDS011;9652;49.014;12.052;2023-04-03T10:32:06;1.60;;;1.50;;
19038;SDS011;9652;49.014;12.052;2023-04-03T10:34:58;1.80;;;1.70;;
19038;SDS011;9652;49.014;12.052;2023-04-03T10:37:41;2.07;;;1.90;;
19038;SDS011;9652;49.014;12.052;2023-04-03T10:40:29;1.90;;;1.80;;
19038;SDS011;9652;49.014;12.052;2023-04-03T10:43:04;2.03;;;1.73;;
19038;SDS011;9652;49.014;12.052;2023-04-03T10:45:47;1.70;;;1.60;;
19038;SDS011;9652;49.014;12.052;2023-04-03T10:48:26;2.07;;;1.80;;
19038;SDS011;9652;49.014;12.052;2023-04-03T10:51:13;2.17;;;1.97;;
19038;SDS011;9652;49.014;12.052;2023-04-03T10:53:54;1.97;;;1.80;;
19038;SDS011;9652;49.014;12.052;2023-04-03T10:56:33;2.10;;;2.00;;
19038;SDS011;9652;49.014;12.052;2023-04-03T10:59:08;2.80;;;1.87;;
19038;SDS011;9652;49.014;12.052;2023-04-03T11:01:49;2.17;;;1.97;;
19038;SDS011;9652;49.014;12.052;2023-04-03T11:04:22;2.23;;;2.03;;
19038;SDS011;9652;49.014;12.052;2023-04-03T11:06:57;2.70;;;2.20;;
19038;SDS011;9652;49.014;12.052;2023-04-03T11:09:28;2.80;;;2.00;;
19038;SDS011;9652;49.014;12.052;2023-04-03T11:12:04;3.27;;;2.97;;
19038;SDS011;9652;49.014;12.052;2023-04-03T11:14:37;1.80;;;1.70;;
19038;SDS011;9652;49.014;12.052;2023-04-03T11:17:11;1.77;;;1.67;;
19038;SDS011;9652;49.014;12.052;2023-04-03T11:19:57;2.10;;;1.90;;
19038;SDS011;9652;49.014;12.052;2023-04-03T11:22:35;2.23;;;1.80;;
19038;SDS011;9652;49.014;12.052;2023-04-03T11:25:13;1.80;;;1.70;;
19038;SDS011;9652;49.014;12.052;2023-04-03T11:27:49;2.13;;;2.03;;
19038;SDS011;9652;49.014;12.052;2023-04-03T11:30:22;1.83;;;1.73;;
19038;SDS011;9652;49.014;12.052;2023-04-03T11:36:12;2.63;;;2.27;;
19038;SDS011;9652;49.014;12.052;2023-04-03T11:38:47;2.57;;;2.40;;
19038;SDS011;9652;49.014;12.052;2023-04-03T11:41:23;1.93;;;1.80;;
19038;SDS011;9652;49.014;12.052;2023-04-03T11:43:58;2.20;;;2.10;;
19038;SDS011;9652;49.014;12.052;2023-04-03T11:55:42;2.70;;;2.00;;
19038;SDS011;9652;49.014;12.052;2023-04-03T11:58:18;2.10;;;2.00;;
19038;SDS011;9652;49.014;12.052;2023-04-03T12:00:50;2.07;;;1.87;;
19038;SDS011;9652;49.014;12.052;2023-04-03T12:12:41;2.83;;;2.00;;
19038;SDS011;9652;49.014;12.052;2023-04-03T12:24:46;1.97;;;1.77;;
19038;SDS011;9652;49.014;12.052;2023-04-03T12:30:12;1.83;;;1.63;;
19038;SDS011;9652;49.014;12.052;2023-04-03T12:32:58;2.63;;;2.43;;
19038;SDS011;9652;49.014;12.052;2023-04-03T12:35:54;2.47;;;2.07;;
19038;SDS011;9652;49.014;12.052;2023-04-03T12:38:39;2.00;;;1.90;;
19038;SDS011;9652;49.014;12.052;2023-04-03T12:41:30;2.10;;;1.90;;
19038;SDS011;9652;49.014;12.052;2023-04-03T12:44:17;2.40;;;2.03;;
19038;SDS011;9652;49.014;12.052;2023-04-03T12:47:08;2.53;;;2.33;;
19038;SDS011;9652;49.014;12.052;2023-04-03T12:49:53;2.73;;;2.17;;
19038;SDS011;9652;49.014;12.052;2023-04-03T12:52:31;2.10;;;2.00;;
19038;SDS011;9652;49.014;12.052;2023-04-03T12:55:15;4.33;;;2.03;;
19038;SDS011;9652;49.014;12.052;2023-04-03T12:57:45;2.70;;;2.07;;
19038;SDS011;9652;49.014;12.052;2023-04-03T13:00:20;2.40;;;2.20;;
19038;SDS011;9652;49.014;12.052;2023-04-03T13:02:55;2.33;;;2.00;;
19038;SDS011;9652;49.014;12.052;2023-04-03T13:05:22;4.60;;;1.70;;
19038;SDS011;9652;49.014;12.052;2023-04-03T13:07:52;2.23;;;2.07;;
19038;SDS011;9652;49.014;12.052;2023-04-03T13:10:28;2.90;;;1.90;;
19038;SDS011;9652;49.014;12.052;2023-04-03T13:12:56;2.27;;;2.10;;
19038;SDS011;9652;49.014;12.052;2023-04-03T13:15:40;2.17;;;1.93;;
19038;SDS011;9652;49.014;12.052;2023-04-03T13:18:21;3.00;;;2.30;;
19038;SDS011;9652;49.014;12.052;2023-04-03T13:20:57;3.40;;;1.87;;
19038;SDS011;9652;49.014;12.052;2023-04-03T13:23:30;2.30;;;2.10;;
19038;SDS011;9652;49.014;12.052;2023-04-03T13:26:02;2.87;;;2.57;;
19038;SDS011;9652;49.014;12.052;2023-04-03T13:28:31;3.90;;;2.23;;
19038;SDS011;9652;49.014;12.052;2023-04-03T13:31:05;2.23;;;2.00;;
19038;SDS011;9652;49.014;12.052;2023-04-03T13:33:52;2.73;;;2.53;;
19038;SDS011;9652;49.014;12.052;2023-04-03T13:36:24;2.23;;;2.13;;
19038;SDS011;9652;49.014;12.052;2023-04-03T13:38:57;1.87;;;1.77;;
19038;SDS011;9652;49.014;12.052;2023-04-03T13:41:30;2.10;;;1.90;;
19038;SDS011;9652;49.014;12.052;2023-04-03T13:44:16;3.03;;;1.90;;
19038;SDS011;9652;49.014;12.052;2023-04-03T13:46:54;1.77;;;1.67;;
19038;SDS011;9652;49.014;12.052;2023-04-03T13:49:29;2.10;;;2.00;;
19038;SDS011;9652;49.014;12.052;2023-04-03T13:52:01;1.50;;;1.40;;
19038;SDS011;9652;49.014;12.052;2023-04-03T13:54:51;1.60;;;1.50;;
19038;SDS011;9652;49.014;12.052;2023-04-03T13:57:23;1.50;;;1.40;;
19038;SDS011;9652;49.014;12.052;2023-04-03T13:59:51;1.60;;;1.50;;
19038;SDS011;9652;49.014;12.052;2023-04-03T14:02:21;1.70;;;1.60;;
19038;SDS011;9652;49.014;12.052;2023-04-03T14:04:56;2.40;;;1.70;;
19038;SDS011;9652;49.014;12.052;2023-04-03T14:07:27;2.47;;;1.43;;
19038;SDS011;9652;49.014;12.052;2023-04-03T14:09:56;3.77;;;1.50;;
19038;SDS011;9652;49.014;12.052;2023-04-03T14:12:26;1.60;;;1.50;;
19038;SDS011;9652;49.014;12.052;2023-04-03T14:14:59;2.60;;;1.77;;
19038;SDS011;9652;49.014;12.052;2023-04-03T14:17:29;1.43;;;1.33;;
19038;SDS011;9652;49.014;12.052;2023-04-03T14:19:56;1.37;;;1.37;;
19038;SDS011;9652;49.014;12.052;2023-04-03T14:22:26;3.27;;;1.53;;
19038;SDS011;9652;49.014;12.052;2023-04-03T14:24:56;1.43;;;1.30;;
19038;SDS011;9652;49.014;12.052;2023-04-03T14:27:27;2.67;;;1.50;;
19038;SDS011;9652;49.014;12.052;2023-04-03T14:29:58;1.93;;;1.60;;
19038;SDS011;9652;49.014;12.052;2023-04-03T14:32:28;1.50;;;1.40;;
19038;SDS011;9652;49.014;12.052;2023-04-03T14:34:55;1.30;;;1.20;;
19038;SDS011;9652;49.014;12.052;2023-04-03T14:37:24;2.50;;;1.53;;
19038;SDS011;9652;49.014;12.052;2023-04-03T14:39:55;1.60;;;1.50;;
19038;SDS011;9652;49.014;12.052;2023-04-03T14:42:24;2.00;;;1.67;;
19038;SDS011;9652;49.014;12.052;2023-04-03T14:44:56;1.43;;;1.33;;
19038;SDS011;9652;49.014;12.052;2023-04-03T14:47:24;1.77;;;1.67;;
19038;SDS011;9652;49.014;12.052;2023-04-03T14:49:54;2.03;;;1.30;;
19038;SDS011;9652;49.014;12.052;2023-04-03T14:52:22;2.07;;;1.40;;
19038;SDS011;9652;49.014;12.052;2023-04-03T14:54:54;1.63;;;1.37;;
19038;SDS011;9652;49.014;12.052;2023-04-03T14:57:23;1.60;;;1.50;;
19038;SDS011;9652;49.014;12.052;2023-04-03T14:59:54;1.97;;;1.77;;
19038;SDS011;9652;49.014;12.052;2023-04-03T15:02:25;2.80;;;1.67;;
19038;SDS011;9652;49.014;12.052;2023-04-03T15:04:56;1.77;;;1.43;;
19038;SDS011;9652;49.014;12.052;2023-04-03T15:07:25;2.00;;;1.80;;
19038;SDS011;9652;49.014;12.052;2023-04-03T15:09:55;2.07;;;1.80;;
19038;SDS011;9652;49.014;12.052;2023-04-03T15:12:22;3.37;;;1.40;;
19038;SDS011;9652;49.014;12.052;2023-04-03T15:14:50;1.43;;;1.33;;
19038;SDS011;9652;49.014;12.052;2023-04-03T15:17:19;2.03;;;1.53;;
19038;SDS011;9652;49.014;12.052;2023-04-03T15:19:49;1.70;;;1.30;;
19038;SDS011;9652;49.014;12.052;2023-04-03T15:22:17;1.20;;;1.20;;
19038;SDS011;9652;49.014;12.052;2023-04-03T15:24:46;2.70;;;1.57;;
19038;SDS011;9652;49.014;12.052;2023-04-03T15:27:13;2.07;;;1.60;;
19038;SDS011;9652;49.014;12.052;2023-04-03T15:29:41;2.80;;;1.60;;
19038;SDS011;9652;49.014;12.052;2023-04-03T15:32:10;1.90;;;1.80;;
19038;SDS011;9652;49.014;12.052;2023-04-03T15:34:40;1.70;;;1.60;;
19038;SDS011;9652;49.014;12.052;2023-04-03T15:37:07;2.43;;;1.50;;
19038;SDS011;9652;49.014;12.052;2023-04-03T15:39:34;2.17;;;1.97;;
19038;SDS011;9652;49.014;12.052;2023-04-03T15:42:01;1.97;;;1.87;;
19038;SDS011;9652;49.014;12.052;2023-04-03T15:44:31;1.97;;;1.87;;
19038;SDS011;9652;49.014;12.052;2023-04-03T15:46:59;2.40;;;2.20;;
19038;SDS011;9652;49.014;12.052;2023-04-03T15:49:28;3.03;;;2.10;;